Air Navigation Services of Czech Republic
Airport: LKMT Updated:  21.11.2019 18:30:25  UTC
 METAR LKMT 21.11. 18:30 ...
METAR LKMT 211830Z 17009KT CAVOK 11/06 Q1012 NOSIG RMK REG QNH 1006=
 TAF LKMT 21.11. 17:00 ...
TAF LKMT 211700Z 2118/2300 19006KT 5000 BR SCT010 BKN020      TEMPO 2118/2207 2000 BR BKN005      BECMG 2200/2202 VRB02KT      PROB30 TEMPO 2203/2207 1400 BR BKN005      BECMG 2207/2209 20005KT 9999 SCT010=